This is the latest recevied weather packets stored in our database for station/object F4AMY-13. If no packets are shown the sender has not sent any weather packets the latest 10 day(s).
| Time | Temp. | Humidity | Pressure | Rain* | Wind** | Luminosity | Snow |
|---|---|---|---|---|---|---|---|
| 1777841516 | 15.56° C | 45% | 1014.9 hPa | 0 mm | 0 m/s | 0 W/m² | - |
| 1777841216 | 15.56° C | 46% | 1014.9 hPa | 0 mm | 0 m/s | 0 W/m² | - |
| 1777840916 | 15.56° C | 46% | 1014.8 hPa | 0 mm | 0 m/s | 0 W/m² | - |
| 1777840616 | 15.56° C | 46% | 1015 hPa | 0 mm | 0 m/s | 0 W/m² | - |
| 1777840316 | 17.22° C | 56% | 1014.9 hPa | 0 mm | 0 m/s | 0 W/m² | - |
| 1777832419 | 17.22° C | 56% | 1014.7 hPa | 0 mm | 0 m/s | 0 W/m² | - |
| 1777832119 | 17.22° C | 54% | 1014.7 hPa | 0 mm | 0 m/s | 0 W/m² | - |
| 1777831819 | 17.78° C | 54% | 1014.4 hPa | 0 mm | 0 m/s | 0 W/m² | - |
| 1777831518 | 17.78° C | 53% | 1014.6 hPa | 0 mm | 0 m/s | 0 W/m² | - |
| 1777831218 | 17.78° C | 53% | 1014.6 hPa | 0 mm | 0 m/s | 0 W/m² | - |
| 1777830918 | 17.78° C | 53% | 1014.7 hPa | 0 mm | 0 m/s | 0 W/m² | - |
| 1777830618 | 17.78° C | 50% | 1015 hPa | 0 mm | 0 m/s | 0 W/m² | - |
| 1777830318 | 17.78° C | 52% | 1015 hPa | 0 mm | 0 m/s | 0 W/m² | - |
| 1777830018 | 18.33° C | 50% | 1015.1 hPa | 0 mm | 0 m/s | 0 W/m² | - |
| 1777829718 | 18.33° C | 50% | 1015 hPa | 0 mm | 0 m/s | 0 W/m² | - |
| 1777829418 | 18.33° C | 49% | 1015 hPa | 0 mm | 0.45 m/s, ° | 1 W/m² | - |
| 1777829118 | 18.33° C | 49% | 1014.7 hPa | 0 mm | 1.79 m/s, ° | 4 W/m² | - |
| 1777828818 | 18.33° C | 48% | 1015.1 hPa | 0 mm | 2.68 m/s, ° | 6 W/m² | - |
| 1777828518 | 18.33° C | 49% | 1014.8 hPa | 0 mm | 6.71 m/s, ° | 15 W/m² | - |
| 1777828218 | 18.89° C | 50% | 1014.8 hPa | 0 mm | 7.15 m/s, ° | 16 W/m² | - |
| 1777827918 | 18.89° C | 49% | 1015.1 hPa | 0 mm | 7.6 m/s, ° | 17 W/m² | - |
| 1777827618 | 18.89° C | 48% | 1014.9 hPa | 0 mm | 8.49 m/s, ° | 19 W/m² | - |
| 1777827318 | 18.89° C | 50% | 1015 hPa | 0 mm | 9.83 m/s, ° | 22 W/m² | - |
| 1777827018 | 18.89° C | 50% | 1015.2 hPa | 0 mm | 12.96 m/s, ° | 29 W/m² | - |
| 1777826718 | 18.89° C | 52% | 1015.3 hPa | 0 mm | 14.31 m/s, ° | 32 W/m² | - |
* Rain latest hour (hover to see other rain measurements)
** Current wind speed in m/s (hover to see current wind gust speed)